RYR8870 LIRP-GMMX
Flight info
| Callsign | RYR8870 |
|---|---|
| Flight time | N/A |
| Altitude | 33000 |
| Route | DOCME6F/21L DOCME DCT SUPUX DCT ETOIL/N0454F350 DCT REQIN UG26 ZEM/N0455F340 UG26 CHE UA411 FES/N0455F350 UG850 OBOGA |
| Aircraft | B38M/M-SDE1FGHILORVWXY/HB1 |
Departure
| Time | N/A |
|---|---|
| Airport | Pisa International Airport (LIRP) |
Arrival
| Time | 2026-04-29 00:40 |
|---|---|
| Airport | Marrakesh Menara Airport (GMMX) |
| Time | Latitude | Longitude | Altitude | Speed | Heading |
|---|---|---|---|---|---|
| 2026-04-28 23:09 | 34.96551 | -1.66175 | 36942 ft | 404 kts | 232° |
| 2026-04-28 23:10 | 34.93055 | -1.71531 | 36942 ft | 403 kts | 232° |
| 2026-04-28 23:10 | 34.89562 | -1.76877 | 36942 ft | 403 kts | 232° |
| 2026-04-28 23:11 | 34.86111 | -1.82152 | 36948 ft | 403 kts | 232° |
| 2026-04-28 23:11 | 34.82545 | -1.87418 | 36947 ft | 403 kts | 231° |
| 2026-04-28 23:12 | 34.78981 | -1.92649 | 36981 ft | 404 kts | 231° |
| 2026-04-28 23:12 | 34.77466 | -1.95524 | 36927 ft | 405 kts | 246° |
| 2026-04-28 23:12 | 34.76522 | -1.98739 | 36986 ft | 404 kts | 249° |
| 2026-04-28 23:13 | 34.74708 | -2.05231 | 36968 ft | 405 kts | 250° |
| 2026-04-28 23:13 | 34.72968 | -2.11750 | 36963 ft | 405 kts | 250° |
| 2026-04-28 23:14 | 34.71243 | -2.18291 | 36942 ft | 406 kts | 250° |
| 2026-04-28 23:14 | 34.69516 | -2.24837 | 36951 ft | 406 kts | 250° |
| 2026-04-28 23:15 | 34.67798 | -2.31337 | 36955 ft | 407 kts | 250° |
| 2026-04-28 23:15 | 34.66061 | -2.37893 | 36946 ft | 408 kts | 250° |
| 2026-04-28 23:16 | 34.64318 | -2.44457 | 36943 ft | 408 kts | 250° |
| 2026-04-28 23:16 | 34.62569 | -2.51025 | 36943 ft | 409 kts | 250° |
| 2026-04-28 23:17 | 34.60822 | -2.57573 | 36943 ft | 410 kts | 250° |
| 2026-04-28 23:17 | 34.59030 | -2.64164 | 36942 ft | 410 kts | 249° |
| 2026-04-28 23:18 | 34.57238 | -2.70729 | 36931 ft | 411 kts | 249° |
| 2026-04-28 23:18 | 34.55438 | -2.77355 | 36941 ft | 412 kts | 250° |
| 2026-04-28 23:19 | 34.53662 | -2.83923 | 36940 ft | 412 kts | 250° |
| 2026-04-28 23:19 | 34.51867 | -2.90543 | 36939 ft | 413 kts | 249° |
| 2026-04-28 23:20 | 34.50066 | -2.97170 | 36936 ft | 414 kts | 249° |
| 2026-04-28 23:20 | 34.48259 | -3.03800 | 36945 ft | 414 kts | 249° |
| 2026-04-28 23:21 | 34.46453 | -3.10413 | 36941 ft | 415 kts | 249° |
| 2026-04-28 23:21 | 34.44642 | -3.17028 | 36942 ft | 416 kts | 249° |
| 2026-04-28 23:22 | 34.42817 | -3.23678 | 36935 ft | 416 kts | 249° |
| 2026-04-28 23:22 | 34.40992 | -3.30309 | 36946 ft | 416 kts | 249° |
| 2026-04-28 23:23 | 34.39155 | -3.36969 | 36944 ft | 417 kts | 249° |
| 2026-04-28 23:23 | 34.37303 | -3.43673 | 36958 ft | 418 kts | 249° |
| 2026-04-28 23:24 | 34.35482 | -3.50355 | 36948 ft | 419 kts | 250° |
| 2026-04-28 23:24 | 34.33682 | -3.57011 | 36953 ft | 419 kts | 250° |
| 2026-04-28 23:25 | 34.31853 | -3.63750 | 36956 ft | 420 kts | 250° |
| 2026-04-28 23:25 | 34.30031 | -3.70451 | 36959 ft | 421 kts | 250° |
| 2026-04-28 23:26 | 34.28198 | -3.77171 | 36960 ft | 421 kts | 250° |
| 2026-04-28 23:26 | 34.26365 | -3.83883 | 36981 ft | 422 kts | 250° |
| 2026-04-28 23:27 | 34.24524 | -3.90597 | 36963 ft | 422 kts | 250° |
| 2026-04-28 23:27 | 34.22675 | -3.97328 | 36951 ft | 422 kts | 250° |
| 2026-04-28 23:28 | 34.20819 | -4.04072 | 36967 ft | 421 kts | 250° |
| 2026-04-28 23:28 | 34.18974 | -4.10759 | 36958 ft | 421 kts | 250° |
| 2026-04-28 23:29 | 34.17099 | -4.17486 | 36957 ft | 421 kts | 249° |
| 2026-04-28 23:29 | 34.15191 | -4.24142 | 36979 ft | 420 kts | 249° |
| 2026-04-28 23:30 | 34.13280 | -4.30818 | 36972 ft | 420 kts | 249° |
| 2026-04-28 23:30 | 34.11367 | -4.37471 | 36966 ft | 421 kts | 249° |
| 2026-04-28 23:31 | 34.09437 | -4.44155 | 36964 ft | 421 kts | 249° |
| 2026-04-28 23:31 | 34.07512 | -4.50810 | 36970 ft | 420 kts | 249° |
| 2026-04-28 23:32 | 34.05587 | -4.57446 | 36975 ft | 420 kts | 249° |
| 2026-04-28 23:32 | 34.03659 | -4.64082 | 36969 ft | 421 kts | 250° |
| 2026-04-28 23:33 | 34.01715 | -4.70753 | 36986 ft | 421 kts | 249° |
| 2026-04-28 23:33 | 33.99768 | -4.77421 | 36989 ft | 421 kts | 249° |
| 2026-04-28 23:34 | 33.97831 | -4.84040 | 36991 ft | 422 kts | 249° |
| 2026-04-28 23:34 | 33.95876 | -4.90704 | 36992 ft | 422 kts | 249° |
| 2026-04-28 23:35 | 33.93914 | -4.97383 | 36997 ft | 422 kts | 250° |
| 2026-04-28 23:35 | 33.92803 | -5.00643 | 36974 ft | 421 kts | 239° |
| 2026-04-28 23:35 | 33.91058 | -5.03469 | 37016 ft | 420 kts | 231° |
| 2026-04-28 23:36 | 33.87298 | -5.08880 | 36994 ft | 421 kts | 231° |
| 2026-04-28 23:36 | 33.83506 | -5.14200 | 36974 ft | 421 kts | 230° |
| 2026-04-28 23:37 | 33.79671 | -5.19526 | 36982 ft | 421 kts | 230° |
| 2026-04-28 23:37 | 33.75827 | -5.24853 | 36975 ft | 421 kts | 230° |
| 2026-04-28 23:38 | 33.71981 | -5.30175 | 36978 ft | 421 kts | 230° |
| 2026-04-28 23:38 | 33.68149 | -5.35468 | 36975 ft | 422 kts | 231° |
| 2026-04-28 23:39 | 33.64274 | -5.40812 | 36973 ft | 422 kts | 231° |
| 2026-04-28 23:39 | 33.60420 | -5.46120 | 36969 ft | 423 kts | 231° |
| 2026-04-28 23:40 | 33.56556 | -5.51434 | 36968 ft | 423 kts | 231° |
| 2026-04-28 23:40 | 33.52687 | -5.56748 | 36969 ft | 423 kts | 231° |
| 2026-04-28 23:41 | 33.48830 | -5.62035 | 36970 ft | 423 kts | 231° |
| 2026-04-28 23:41 | 33.44949 | -5.67350 | 36973 ft | 423 kts | 230° |
| 2026-04-28 23:42 | 33.41069 | -5.72655 | 36963 ft | 424 kts | 231° |
| 2026-04-28 23:42 | 33.37201 | -5.77935 | 36971 ft | 424 kts | 231° |
| 2026-04-28 23:43 | 33.33302 | -5.83250 | 36965 ft | 425 kts | 231° |
| 2026-04-28 23:43 | 33.29386 | -5.88559 | 36962 ft | 426 kts | 231° |
| 2026-04-28 23:44 | 33.25461 | -5.93876 | 36965 ft | 426 kts | 231° |
| 2026-04-28 23:44 | 33.21550 | -5.99167 | 36970 ft | 427 kts | 231° |
| 2026-04-28 23:45 | 33.17600 | -6.04502 | 36967 ft | 427 kts | 231° |
| 2026-04-28 23:45 | 33.13660 | -6.09815 | 36954 ft | 427 kts | 231° |
| 2026-04-28 23:46 | 33.09736 | -6.15100 | 36970 ft | 428 kts | 231° |
| 2026-04-28 23:46 | 33.05768 | -6.20436 | 36967 ft | 429 kts | 231° |
| 2026-04-28 23:47 | 33.01798 | -6.25766 | 36973 ft | 429 kts | 231° |
| 2026-04-28 23:47 | 32.97852 | -6.31056 | 36962 ft | 429 kts | 231° |
| 2026-04-28 23:48 | 32.93882 | -6.36373 | 36966 ft | 429 kts | 231° |
| 2026-04-28 23:48 | 32.89918 | -6.41688 | 36968 ft | 429 kts | 231° |
| 2026-04-28 23:49 | 32.85951 | -6.47005 | 36965 ft | 429 kts | 231° |
| 2026-04-28 23:49 | 32.81978 | -6.52322 | 36964 ft | 430 kts | 231° |
| 2026-04-28 23:50 | 32.77992 | -6.57648 | 36966 ft | 431 kts | 231° |
| 2026-04-28 23:50 | 32.74005 | -6.62969 | 36966 ft | 431 kts | 231° |
| 2026-04-28 23:51 | 32.70008 | -6.68295 | 36947 ft | 431 kts | 231° |
| 2026-04-28 23:51 | 32.66042 | -6.73571 | 36963 ft | 431 kts | 231° |
| 2026-04-28 23:52 | 32.62013 | -6.78924 | 36577 ft | 439 kts | 231° |
| 2026-04-28 23:52 | 32.59984 | -6.81616 | 36751 ft | 434 kts | 231° |
| 2026-04-28 23:52 | 32.57988 | -6.84263 | 37049 ft | 427 kts | 231° |
| 2026-04-28 23:53 | 32.54016 | -6.89526 | 37006 ft | 429 kts | 232° |
| 2026-04-28 23:53 | 32.50044 | -6.94780 | 36983 ft | 430 kts | 231° |
| 2026-04-28 23:54 | 32.46032 | -7.00079 | 36989 ft | 431 kts | 231° |
| 2026-04-28 23:54 | 32.42045 | -7.05338 | 36967 ft | 431 kts | 231° |
| 2026-04-28 23:55 | 32.38018 | -7.10642 | 36974 ft | 432 kts | 231° |
| 2026-04-28 23:55 | 32.34011 | -7.15912 | 36976 ft | 432 kts | 231° |
| 2026-04-28 23:56 | 32.29987 | -7.21199 | 36974 ft | 433 kts | 231° |
| 2026-04-28 23:56 | 32.26643 | -7.25587 | 36961 ft | 433 kts | 232° |
| 2026-04-28 23:57 | 32.21948 | -7.31752 | 36966 ft | 434 kts | 232° |
| 2026-04-28 23:57 | 32.18566 | -7.36187 | 36969 ft | 434 kts | 232° |
| 2026-04-28 23:58 | 32.14541 | -7.41459 | 36964 ft | 434 kts | 232° |
| 2026-04-28 23:58 | 32.10493 | -7.46753 | 36935 ft | 435 kts | 232° |
| 2026-04-28 23:59 | 32.06446 | -7.52031 | 36763 ft | 431 kts | 232° |
| 2026-04-28 23:59 | 32.04438 | -7.54642 | 36587 ft | 429 kts | 232° |
| 2026-04-28 23:59 | 32.02429 | -7.57255 | 36410 ft | 430 kts | 232° |
| 2026-04-29 00:00 | 32.00423 | -7.59861 | 36226 ft | 430 kts | 232° |
| 2026-04-29 00:00 | 31.98414 | -7.62470 | 36039 ft | 430 kts | 232° |
| 2026-04-29 00:00 | 31.96397 | -7.65087 | 35861 ft | 430 kts | 232° |
| 2026-04-29 00:00 | 31.94386 | -7.67694 | 35686 ft | 430 kts | 232° |
| 2026-04-29 00:01 | 31.92380 | -7.70293 | 35514 ft | 429 kts | 232° |
| 2026-04-29 00:01 | 31.90372 | -7.72893 | 35404 ft | 428 kts | 232° |
| 2026-04-29 00:01 | 31.86387 | -7.78046 | 34684 ft | 424 kts | 232° |
| 2026-04-29 00:02 | 31.84400 | -7.80615 | 34179 ft | 422 kts | 232° |
| 2026-04-29 00:02 | 31.82592 | -7.83279 | 33680 ft | 412 kts | 243° |
| 2026-04-29 00:02 | 31.81447 | -7.86314 | 33060 ft | 403 kts | 259° |
| 2026-04-29 00:02 | 31.81084 | -7.89538 | 32499 ft | 395 kts | 274° |
| 2026-04-29 00:03 | 31.81494 | -7.92654 | 31965 ft | 389 kts | 289° |
| 2026-04-29 00:03 | 31.82655 | -7.95510 | 31449 ft | 386 kts | 305° |
| 2026-04-29 00:03 | 31.84483 | -7.97799 | 30961 ft | 385 kts | 322° |
| 2026-04-29 00:03 | 31.86840 | -7.99282 | 30481 ft | 387 kts | 340° |
| 2026-04-29 00:04 | 31.89502 | -7.99739 | 29998 ft | 391 kts | 360° |
| 2026-04-29 00:04 | 31.92169 | -7.99047 | 29469 ft | 398 kts | 20° |
| 2026-04-29 00:04 | 31.94490 | -7.97233 | 28932 ft | 407 kts | 41° |
| 2026-04-29 00:04 | 31.96157 | -7.94519 | 28407 ft | 413 kts | 56° |
| 2026-04-29 00:05 | 31.97436 | -7.91479 | 27851 ft | 416 kts | 64° |
| 2026-04-29 00:05 | 31.98710 | -7.88461 | 27419 ft | 407 kts | 51° |
| 2026-04-29 00:05 | 32.00373 | -7.85796 | 26978 ft | 402 kts | 49° |
| 2026-04-29 00:05 | 32.02077 | -7.83200 | 26534 ft | 400 kts | 48° |
| 2026-04-29 00:06 | 32.03787 | -7.80620 | 26112 ft | 398 kts | 49° |
| 2026-04-29 00:06 | 32.05114 | -7.77755 | 25695 ft | 403 kts | 69° |
| 2026-04-29 00:06 | 32.05567 | -7.74492 | 25264 ft | 407 kts | 90° |
| 2026-04-29 00:06 | 32.04943 | -7.71245 | 24852 ft | 408 kts | 116° |
| 2026-04-29 00:07 | 32.03281 | -7.68622 | 24436 ft | 404 kts | 142° |
| 2026-04-29 00:07 | 32.00870 | -7.67043 | 24008 ft | 396 kts | 168° |
| 2026-04-29 00:07 | 31.98176 | -7.66736 | 23596 ft | 385 kts | 191° |
| 2026-04-29 00:07 | 31.95659 | -7.67591 | 23133 ft | 373 kts | 211° |
| 2026-04-29 00:08 | 31.93540 | -7.69276 | 22699 ft | 363 kts | 227° |
| 2026-04-29 00:08 | 31.91762 | -7.71342 | 22284 ft | 359 kts | 229° |
| 2026-04-29 00:08 | 31.90034 | -7.73453 | 21909 ft | 356 kts | 230° |
| 2026-04-29 00:08 | 31.88330 | -7.75594 | 21511 ft | 354 kts | 231° |
| 2026-04-29 00:09 | 31.86684 | -7.77690 | 21260 ft | 348 kts | 231° |
| 2026-04-29 00:09 | 31.85064 | -7.79770 | 21108 ft | 339 kts | 231° |
| 2026-04-29 00:09 | 31.83511 | -7.81803 | 20952 ft | 329 kts | 235° |
| 2026-04-29 00:09 | 31.82388 | -7.84103 | 20423 ft | 327 kts | 254° |
| 2026-04-29 00:10 | 31.82046 | -7.86705 | 20046 ft | 324 kts | 274° |
| 2026-04-29 00:10 | 31.82532 | -7.89299 | 19947 ft | 327 kts | 293° |
| 2026-04-29 00:10 | 31.83739 | -7.91596 | 19721 ft | 332 kts | 310° |
| 2026-04-29 00:10 | 31.85522 | -7.93323 | 19273 ft | 338 kts | 329° |
| 2026-04-29 00:11 | 31.87750 | -7.94291 | 18750 ft | 346 kts | 347° |
| 2026-04-29 00:11 | 31.90168 | -7.94331 | 18209 ft | 355 kts | 7° |
| 2026-04-29 00:11 | 31.94347 | -7.91301 | 17043 ft | 370 kts | 53° |
| 2026-04-29 00:12 | 31.95819 | -7.88732 | 16226 ft | 381 kts | 53° |
| 2026-04-29 00:12 | 31.97427 | -7.86231 | 15441 ft | 389 kts | 51° |
| 2026-04-29 00:12 | 31.99144 | -7.83725 | 14654 ft | 398 kts | 49° |
| 2026-04-29 00:12 | 32.00946 | -7.81202 | 13883 ft | 405 kts | 49° |
| 2026-04-29 00:13 | 32.02769 | -7.78644 | 13033 ft | 411 kts | 55° |
| 2026-04-29 00:13 | 32.03860 | -7.75588 | 12548 ft | 407 kts | 81° |
| 2026-04-29 00:13 | 32.03744 | -7.72315 | 12403 ft | 391 kts | 107° |
| 2026-04-29 00:13 | 32.02512 | -7.69585 | 12304 ft | 373 kts | 133° |
| 2026-04-29 00:14 | 32.00482 | -7.67829 | 12219 ft | 356 kts | 159° |
| 2026-04-29 00:14 | 31.98137 | -7.67218 | 12132 ft | 339 kts | 181° |
| 2026-04-29 00:14 | 31.95871 | -7.67648 | 12018 ft | 325 kts | 201° |
| 2026-04-29 00:14 | 31.93918 | -7.68896 | 11763 ft | 317 kts | 219° |
| 2026-04-29 00:15 | 31.92320 | -7.70649 | 11424 ft | 314 kts | 226° |
| 2026-04-29 00:15 | 31.90813 | -7.72467 | 11040 ft | 314 kts | 227° |
| 2026-04-29 00:15 | 31.89318 | -7.74330 | 10675 ft | 313 kts | 228° |
| 2026-04-29 00:15 | 31.87843 | -7.76199 | 10393 ft | 309 kts | 228° |
| 2026-04-29 00:16 | 31.86405 | -7.78038 | 10243 ft | 301 kts | 228° |
| 2026-04-29 00:16 | 31.85017 | -7.79825 | 10106 ft | 292 kts | 229° |
| 2026-04-29 00:16 | 31.83666 | -7.81578 | 9907 ft | 286 kts | 231° |
| 2026-04-29 00:16 | 31.82735 | -7.83585 | 9706 ft | 276 kts | 257° |
| 2026-04-29 00:17 | 31.82649 | -7.85769 | 9586 ft | 264 kts | 282° |
| 2026-04-29 00:17 | 31.83334 | -7.87701 | 9502 ft | 253 kts | 306° |
| 2026-04-29 00:17 | 31.84595 | -7.89124 | 9412 ft | 257 kts | 327° |
| 2026-04-29 00:17 | 31.86286 | -7.89935 | 9368 ft | 269 kts | 348° |
| 2026-04-29 00:18 | 31.88174 | -7.89991 | 9306 ft | 276 kts | 8° |
| 2026-04-29 00:18 | 31.89997 | -7.89251 | 9246 ft | 279 kts | 30° |
| 2026-04-29 00:18 | 31.91513 | -7.87829 | 9185 ft | 281 kts | 45° |
| 2026-04-29 00:18 | 31.92867 | -7.86189 | 9138 ft | 282 kts | 45° |
| 2026-04-29 00:19 | 31.94237 | -7.84535 | 9074 ft | 282 kts | 45° |
| 2026-04-29 00:19 | 31.95600 | -7.82867 | 9007 ft | 282 kts | 45° |
| 2026-04-29 00:19 | 31.96972 | -7.81222 | 8942 ft | 282 kts | 45° |
| 2026-04-29 00:19 | 31.98367 | -7.79600 | 8879 ft | 281 kts | 43° |
| 2026-04-29 00:20 | 31.99746 | -7.77966 | 8805 ft | 281 kts | 51° |
| 2026-04-29 00:20 | 32.00650 | -7.75954 | 8723 ft | 279 kts | 76° |
| 2026-04-29 00:20 | 32.00776 | -7.73697 | 8659 ft | 278 kts | 100° |
| 2026-04-29 00:20 | 32.00123 | -7.71576 | 8594 ft | 277 kts | 124° |
| 2026-04-29 00:21 | 31.98810 | -7.69953 | 8534 ft | 274 kts | 148° |
| 2026-04-29 00:21 | 31.97069 | -7.69102 | 8476 ft | 272 kts | 171° |
| 2026-04-29 00:21 | 31.95197 | -7.69140 | 8420 ft | 270 kts | 195° |
| 2026-04-29 00:21 | 31.93505 | -7.70035 | 8365 ft | 267 kts | 217° |
| 2026-04-29 00:22 | 31.92088 | -7.71411 | 8315 ft | 269 kts | 221° |
| 2026-04-29 00:22 | 31.90689 | -7.72916 | 8256 ft | 269 kts | 224° |
| 2026-04-29 00:22 | 31.89371 | -7.74437 | 8206 ft | 269 kts | 225° |
| 2026-04-29 00:22 | 31.88069 | -7.76013 | 8134 ft | 268 kts | 226° |
| 2026-04-29 00:23 | 31.86790 | -7.77607 | 8112 ft | 267 kts | 227° |
| 2026-04-29 00:23 | 31.85527 | -7.79206 | 8113 ft | 268 kts | 227° |
| 2026-04-29 00:23 | 31.84263 | -7.80820 | 8115 ft | 268 kts | 227° |
| 2026-04-29 00:23 | 31.83133 | -7.82555 | 8068 ft | 268 kts | 244° |
| 2026-04-29 00:24 | 31.82694 | -7.84661 | 8012 ft | 266 kts | 271° |
| 2026-04-29 00:24 | 31.82981 | -7.86809 | 7978 ft | 268 kts | 280° |
| 2026-04-29 00:24 | 31.83274 | -7.88982 | 7943 ft | 269 kts | 276° |
| 2026-04-29 00:24 | 31.83466 | -7.91166 | 7882 ft | 269 kts | 273° |
| 2026-04-29 00:25 | 31.83587 | -7.93359 | 7837 ft | 269 kts | 271° |
| 2026-04-29 00:25 | 31.83658 | -7.95555 | 7779 ft | 269 kts | 270° |
| 2026-04-29 00:25 | 31.83696 | -7.97758 | 7613 ft | 269 kts | 269° |
| 2026-04-29 00:25 | 31.83717 | -7.99957 | 7391 ft | 269 kts | 269° |
| 2026-04-29 00:26 | 31.83728 | -8.02150 | 7178 ft | 268 kts | 269° |
| 2026-04-29 00:26 | 31.83730 | -8.04341 | 6959 ft | 268 kts | 269° |
| 2026-04-29 00:26 | 31.83729 | -8.06504 | 6747 ft | 267 kts | 268° |
| 2026-04-29 00:26 | 31.83724 | -8.08687 | 6534 ft | 266 kts | 268° |
| 2026-04-29 00:27 | 31.83718 | -8.10862 | 6326 ft | 266 kts | 268° |
| 2026-04-29 00:27 | 31.83712 | -8.13036 | 6099 ft | 265 kts | 268° |
| 2026-04-29 00:27 | 31.83704 | -8.15193 | 5984 ft | 263 kts | 268° |
| 2026-04-29 00:27 | 31.83697 | -8.17345 | 5981 ft | 264 kts | 268° |
| 2026-04-29 00:28 | 31.83688 | -8.19486 | 5985 ft | 264 kts | 268° |
| 2026-04-29 00:28 | 31.83680 | -8.21643 | 5987 ft | 264 kts | 268° |
| 2026-04-29 00:28 | 31.83671 | -8.23800 | 5937 ft | 265 kts | 268° |
| 2026-04-29 00:28 | 31.83662 | -8.25969 | 5754 ft | 264 kts | 268° |
| 2026-04-29 00:29 | 31.83652 | -8.28124 | 5555 ft | 263 kts | 268° |
| 2026-04-29 00:29 | 31.83643 | -8.30281 | 5355 ft | 262 kts | 268° |
| 2026-04-29 00:29 | 31.83632 | -8.32423 | 5149 ft | 261 kts | 268° |
| 2026-04-29 00:29 | 31.83621 | -8.34559 | 4958 ft | 261 kts | 268° |
| 2026-04-29 00:30 | 31.83598 | -8.36686 | 4773 ft | 260 kts | 263° |
| 2026-04-29 00:30 | 31.83334 | -8.38041 | 4606 ft | 256 kts | 244° |
| 2026-04-29 00:30 | 31.81825 | -8.40055 | 4323 ft | 250 kts | 210° |
| 2026-04-29 00:30 | 31.80264 | -8.40967 | 4145 ft | 251 kts | 205° |
| 2026-04-29 00:31 | 31.78684 | -8.41834 | 3946 ft | 251 kts | 205° |
| 2026-04-29 00:31 | 31.77174 | -8.42644 | 3773 ft | 252 kts | 205° |
| 2026-04-29 00:31 | 31.75571 | -8.43491 | 3568 ft | 252 kts | 205° |
| 2026-04-29 00:31 | 31.73964 | -8.44331 | 3371 ft | 253 kts | 205° |
| 2026-04-29 00:32 | 31.72355 | -8.45167 | 3208 ft | 252 kts | 205° |
| 2026-04-29 00:32 | 31.70749 | -8.45995 | 3200 ft | 252 kts | 205° |
| 2026-04-29 00:32 | 31.69134 | -8.46814 | 3229 ft | 254 kts | 200° |
| 2026-04-29 00:32 | 31.67394 | -8.47054 | 3144 ft | 254 kts | 173° |
| 2026-04-29 00:33 | 31.65738 | -8.46338 | 3165 ft | 256 kts | 146° |
| 2026-04-29 00:33 | 31.64564 | -8.44871 | 3190 ft | 240 kts | 118° |
| 2026-04-29 00:33 | 31.64107 | -8.43077 | 3202 ft | 223 kts | 96° |
| 2026-04-29 00:33 | 31.63966 | -8.41327 | 3178 ft | 208 kts | 95° |
| 2026-04-29 00:34 | 31.63835 | -8.39652 | 3168 ft | 205 kts | 95° |
| 2026-04-29 00:34 | 31.63697 | -8.37985 | 3201 ft | 206 kts | 95° |
| 2026-04-29 00:34 | 31.63555 | -8.36307 | 3219 ft | 206 kts | 95° |
| 2026-04-29 00:34 | 31.63411 | -8.34634 | 3205 ft | 206 kts | 95° |
| 2026-04-29 00:35 | 31.63266 | -8.32970 | 3178 ft | 206 kts | 95° |
| 2026-04-29 00:35 | 31.63115 | -8.31245 | 3216 ft | 214 kts | 94° |
| 2026-04-29 00:35 | 31.62977 | -8.29697 | 3188 ft | 209 kts | 94° |
| 2026-04-29 00:35 | 31.62833 | -8.28070 | 3161 ft | 206 kts | 94° |
| 2026-04-29 00:36 | 31.62740 | -8.27008 | 3184 ft | 205 kts | 94° |
| 2026-04-29 00:36 | 31.62572 | -8.25083 | 3200 ft | 206 kts | 94° |
| 2026-04-29 00:36 | 31.62426 | -8.23416 | 3192 ft | 206 kts | 94° |
| 2026-04-29 00:36 | 31.62280 | -8.21745 | 3179 ft | 206 kts | 94° |
| 2026-04-29 00:37 | 31.62132 | -8.20065 | 3184 ft | 207 kts | 94° |
| 2026-04-29 00:37 | 31.61985 | -8.18386 | 3192 ft | 206 kts | 94° |
| 2026-04-29 00:37 | 31.61838 | -8.16712 | 3189 ft | 206 kts | 94° |
| 2026-04-29 00:37 | 31.61694 | -8.15063 | 3123 ft | 207 kts | 94° |
| 2026-04-29 00:38 | 31.61546 | -8.13384 | 2889 ft | 205 kts | 94° |
| 2026-04-29 00:38 | 31.61401 | -8.11728 | 2633 ft | 204 kts | 94° |
| 2026-04-29 00:38 | 31.61260 | -8.10133 | 2428 ft | 187 kts | 94° |
| 2026-04-29 00:38 | 31.61134 | -8.08684 | 2167 ft | 170 kts | 95° |
| 2026-04-29 00:39 | 31.61017 | -8.07355 | 1899 ft | 159 kts | 95° |
| 2026-04-29 00:39 | 31.60903 | -8.06062 | 1688 ft | 160 kts | 95° |
| 2026-04-29 00:39 | 31.60789 | -8.04765 | 1523 ft | 160 kts | 95° |
| 2026-04-29 00:39 | 31.60688 | -8.03611 | 1524 ft | 112 kts | 96° |
| 2026-04-29 00:40 | 31.60631 | -8.02948 | 1535 ft | 61 kts | 95° |
| 2026-04-29 00:40 | 31.60595 | -8.02643 | 1532 ft | 8 kts | 137° |
| 2026-04-29 00:40 | 31.60544 | -8.02636 | 1539 ft | 9 kts | 184° |
| 2026-04-29 00:40 | 31.60466 | -8.02643 | 1538 ft | 13 kts | 180° |
| 2026-04-29 00:41 | 31.60423 | -8.02566 | 1535 ft | 12 kts | 98° |
| 2026-04-29 00:41 | 31.60416 | -8.02499 | 1540 ft | 12 kts | 96° |
| 2026-04-29 00:41 | 31.60405 | -8.02365 | 1541 ft | 13 kts | 96° |
| 2026-04-29 00:41 | 31.60397 | -8.02261 | 1539 ft | 13 kts | 95° |
| 2026-04-29 00:42 | 31.60349 | -8.02192 | 1543 ft | 12 kts | 176° |
| 2026-04-29 00:42 | 31.60263 | -8.02199 | 1543 ft | 13 kts | 185° |
| 2026-04-29 00:42 | 31.60185 | -8.02233 | 1536 ft | 12 kts | 257° |
| 2026-04-29 00:42 | 31.60184 | -8.02291 | 1543 ft | 5 kts | 271° |
| 2026-04-29 00:43 | 31.60184 | -8.02295 | 1542 ft | 0 kts | 271° |